Pilot L239 — OJ9461 — position and weather

sailwx.info

Track history (hours):
 
Tides and Currents Weather Stations Pressure Air Temp Water Temp Dewpoint Dewpoint Depression Visibility Wind Speed Wind Dir Waves Ship Positions

Pilot L239

Last reported at 2014-Jul-25 15:33 UTC. Time now 2014-Jul-25 16:00 UTC.
Position N 60°06' E 024°58'.

Length 15 m.

Type: Pilot. MMSI: 230035440.

Date/timePositionNaut miles runAvg speedWind from/ knotsBaromVisibWave heightAir tempDewpointWater temp
2014-Jul-25 15:33N 60°06' E 024°58'3 1.2
2014-Jul-25 13:28N 60°04' E 024°57'7 3.6
2014-Jul-25 11:33N 60°06' E 025°11'6 6.0
2014-Jul-25 10:33N 60°07' E 024°59'0 0.0
2014-Jul-25 07:30N 60°07' E 024°59'0 0.3
2014-Jul-25 06:05N 60°06' E 024°59'0 0.1
2014-Jul-25 04:22N 60°06' E 024°58'1 0.8
2014-Jul-25 03:33N 60°07' E 024°59'6 5.6
2014-Jul-25 02:33N 60°01' E 024°57'8 7.1
2014-Jul-25 01:30N 60°05' E 025°10'6 5.9
2014-Jul-25 00:30N 60°06' E 024°58'0 0.0
2014-Jul-24 23:30N 60°06' E 024°58'0 0.0
2014-Jul-24 22:33N 60°06' E 024°58'0 0.0
2014-Jul-24 21:33N 60°06' E 024°58'4 1.9
2014-Jul-24 19:33N 60°05' E 025°06'1 1.3
2014-Jul-24 18:33N 60°06' E 025°07'3 1.6
2014-Jul-24 16:33N 60°07' E 025°00'3 0.7
2014-Jul-24 12:33N 60°04' E 024°58'2 1.9
2014-Jul-24 11:33N 60°06' E 024°58'1 0.4
2014-Jul-24 10:16N 60°06' E 024°58'0 0.0
2014-Jul-24 06:11N 60°06' E 024°58'3 1.3
2014-Jul-24 03:33N 60°10' E 025°00'6 0.7
2014-Jul-23 19:33N 60°06' E 025°09'3 3.0
2014-Jul-23 18:33N 60°07' E 025°04'3 2.3
2014-Jul-23 17:26N 60°06' E 024°59'0 0.0
2014-Jul-23 15:25N 60°06' E 024°58'3 3.0
2014-Jul-23 14:34N 60°04' E 024°56'6 1.4
2014-Jul-23 10:33N 60°10' E 024°59'3 1.4
2014-Jul-23 08:18N 60°06' E 024°58'4 4.1
2014-Jul-23 07:21N 60°10' E 024°58'4 4.2
2014-Jul-23 06:23N 60°06' E 024°59'4 1.8
2014-Jul-23 04:21N 60°10' E 024°58'6 7.3
2014-Jul-23 03:32N 60°06' E 025°07'4 0.5
2014-Jul-22 18:20N 60°06' E 024°59'1 1.7
2014-Jul-22 17:33N 60°08' E 024°59'1 0.5
2014-Jul-22 14:33N 60°06' E 024°58'2 0.7
2014-Jul-22 11:33N 60°08' E 024°60'1 0.9
2014-Jul-22 10:33N 60°09' E 024°60'3 0.4
2014-Jul-22 04:12N 60°06' E 024°59'1 0.8
2014-Jul-22 03:33N 60°07' E 024°59'2 0.3
2014-Jul-21 19:33N 60°07' E 025°03'1 0.7
2014-Jul-21 18:08N 60°07' E 025°05'5 2.8
2014-Jul-21 16:17N 60°04' E 024°56'6 6.2
2014-Jul-21 15:20N 60°05' E 025°08'1 0.5
2014-Jul-21 13:33N 60°05' E 025°09'6 5.1
2014-Jul-21 12:27N 60°06' E 024°58'4 4.9
2014-Jul-21 11:33N 60°06' E 025°07'4 3.8
2014-Jul-21 10:24N 60°06' E 024°58'0 0.0
2014-Jul-21 09:30N 60°06' E 024°58'6 2.9
2014-Jul-21 07:30N 60°05' E 025°10'6 4.8
2014-Jul-21 06:18N 60°06' E 024°58'0 0.0
2014-Jul-21 04:27N 60°06' E 024°58'6 3.1
2014-Jul-21 02:33N 60°05' E 025°10'6 5.7
2014-Jul-21 01:33N 60°06' E 024°58'4 0.4
2014-Jul-20 14:31N 60°03' E 024°53'7 1.8
2014-Jul-20 10:28N 60°10' E 024°58'4 0.9
2014-Jul-20 06:21N 60°06' E 024°58'0 0.0
2014-Jul-20 03:19N 60°06' E 024°58'4 0.5
2014-Jul-19 20:33N 60°07' E 025°06'4 0.6
2014-Jul-19 14:33N 60°06' E 024°59'1 0.7
2014-Jul-19 13:31N 60°06' E 024°58'6 6.1
2014-Jul-19 12:33N 60°05' E 025°10'5 2.7
2014-Jul-19 10:33N 60°07' E 024°60'1 0.5
2014-Jul-19 09:12N 60°06' E 024°58'0 0.0
2014-Jul-19 06:19N 60°06' E 024°58'0 0.0
2014-Jul-19 05:04N 60°06' E 024°58'1 0.1
2014-Jul-18 20:06N 60°07' E 024°59'3 4.7
2014-Jul-18 19:33N 60°07' E 025°04'4 3.7
2014-Jul-18 18:27N 60°10' E 024°58'5 5.3
2014-Jul-18 17:34N 60°07' E 025°05'3 2.7
2014-Jul-18 16:29N 60°06' E 024°59'6 6.0
2014-Jul-18 15:33N 60°05' E 025°10'6 4.2
2014-Jul-18 14:12N 60°06' E 024°59'5 1.3
2014-Jul-18 10:33N 60°11' E 025°01'4 1.4
2014-Jul-18 07:26N 60°06' E 024°59'0 0.1
2014-Jul-18 04:26N 60°07' E 024°59'1 1.1
2014-Jul-18 03:33N 60°07' E 024°59'7 6.8
2014-Jul-18 02:28N 60°00' E 024°57'6 4.6
2014-Jul-18 01:06N 60°06' E 024°58'0 0.0
2014-Jul-17 15:33N 60°06' E 024°58'3 3.4
2014-Jul-17 14:32N 60°10' E 024°59'7 6.7
2014-Jul-17 13:26N 60°03' E 024°56'4 3.1
2014-Jul-17 12:06N 60°06' E 024°59'1 2.5
2014-Jul-17 11:34N 60°08' E 024°59'1 1.2
2014-Jul-17 10:20N 60°06' E 024°58'3 3.6
2014-Jul-17 09:33N 60°07' E 025°04'3 0.6
2014-Jul-17 04:30N 60°06' E 024°58'1 1.0
2014-Jul-17 03:32N 60°05' E 024°59'1 0.1
2014-Jul-16 18:33N 60°07' E 024°60'5 4.4
2014-Jul-16 17:32N 60°06' E 025°09'5 4.2
2014-Jul-16 16:18N 60°06' E 024°58'0 0.2
2014-Jul-16 15:33N 60°06' E 024°59'1 1.4
2014-Jul-16 14:33N 60°06' E 024°56'7 0.7
2014-Jul-16 04:27N 60°02' E 025°06'6 6.4
2014-Jul-16 03:33N 60°06' E 024°59'0 0.2
2014-Jul-16 02:20N 60°06' E 024°58'0 0.0
2014-Jul-15 20:04N 60°06' E 024°58'4 8.0
2014-Jul-15 19:33N 60°06' E 025°07'1 0.2
2014-Jul-15 15:33N 60°07' E 025°05'  
Track history (hours):
 
Tides and Currents Weather Stations Pressure Air Temp Water Temp Dewpoint Dewpoint Depression Visibility Wind Speed Wind Dir Waves Ship Positions

Pilot L239

Last reported at 2014-Jul-25 15:33 UTC. Time now 2014-Jul-25 16:00 UTC.
Position N 60°06' E 024°58'.

Length 15 m.

Type: Pilot. MMSI: 230035440.

Date/timePositionNaut miles runAvg speedWind from/ knotsBaromVisibWave heightAir tempDewpointWater temp
2014-Jul-25 15:33N 60°06' E 024°58'3 1.2
2014-Jul-25 13:28N 60°04' E 024°57'7 3.6
2014-Jul-25 11:33N 60°06' E 025°11'6 6.0
2014-Jul-25 10:33N 60°07' E 024°59'0 0.0
2014-Jul-25 07:30N 60°07' E 024°59'0 0.3
2014-Jul-25 06:05N 60°06' E 024°59'0 0.1
2014-Jul-25 04:22N 60°06' E 024°58'1 0.8
2014-Jul-25 03:33N 60°07' E 024°59'6 5.6
2014-Jul-25 02:33N 60°01' E 024°57'8 7.1
2014-Jul-25 01:30N 60°05' E 025°10'6 5.9
2014-Jul-25 00:30N 60°06' E 024°58'0 0.0
2014-Jul-24 23:30N 60°06' E 024°58'0 0.0
2014-Jul-24 22:33N 60°06' E 024°58'0 0.0
2014-Jul-24 21:33N 60°06' E 024°58'4 1.9
2014-Jul-24 19:33N 60°05' E 025°06'1 1.3
2014-Jul-24 18:33N 60°06' E 025°07'3 1.6
2014-Jul-24 16:33N 60°07' E 025°00'3 0.7
2014-Jul-24 12:33N 60°04' E 024°58'2 1.9
2014-Jul-24 11:33N 60°06' E 024°58'1 0.4
2014-Jul-24 10:16N 60°06' E 024°58'0 0.0
2014-Jul-24 06:11N 60°06' E 024°58'3 1.3
2014-Jul-24 03:33N 60°10' E 025°00'6 0.7
2014-Jul-23 19:33N 60°06' E 025°09'3 3.0
2014-Jul-23 18:33N 60°07' E 025°04'3 2.3
2014-Jul-23 17:26N 60°06' E 024°59'0 0.0
2014-Jul-23 15:25N 60°06' E 024°58'3 3.0
2014-Jul-23 14:34N 60°04' E 024°56'6 1.4
2014-Jul-23 10:33N 60°10' E 024°59'3 1.4
2014-Jul-23 08:18N 60°06' E 024°58'4 4.1
2014-Jul-23 07:21N 60°10' E 024°58'4 4.2
2014-Jul-23 06:23N 60°06' E 024°59'4 1.8
2014-Jul-23 04:21N 60°10' E 024°58'6 7.3
2014-Jul-23 03:32N 60°06' E 025°07'4 0.5
2014-Jul-22 18:20N 60°06' E 024°59'1 1.7
2014-Jul-22 17:33N 60°08' E 024°59'1 0.5
2014-Jul-22 14:33N 60°06' E 024°58'2 0.7
2014-Jul-22 11:33N 60°08' E 024°60'1 0.9
2014-Jul-22 10:33N 60°09' E 024°60'3 0.4
2014-Jul-22 04:12N 60°06' E 024°59'1 0.8
2014-Jul-22 03:33N 60°07' E 024°59'2 0.3
2014-Jul-21 19:33N 60°07' E 025°03'1 0.7
2014-Jul-21 18:08N 60°07' E 025°05'5 2.8
2014-Jul-21 16:17N 60°04' E 024°56'6 6.2
2014-Jul-21 15:20N 60°05' E 025°08'1 0.5
2014-Jul-21 13:33N 60°05' E 025°09'6 5.1
2014-Jul-21 12:27N 60°06' E 024°58'4 4.9
2014-Jul-21 11:33N 60°06' E 025°07'4 3.8
2014-Jul-21 10:24N 60°06' E 024°58'0 0.0
2014-Jul-21 09:30N 60°06' E 024°58'6 2.9
2014-Jul-21 07:30N 60°05' E 025°10'6 4.8
2014-Jul-21 06:18N 60°06' E 024°58'0 0.0
2014-Jul-21 04:27N 60°06' E 024°58'6 3.1
2014-Jul-21 02:33N 60°05' E 025°10'6 5.7
2014-Jul-21 01:33N 60°06' E 024°58'4 0.4
2014-Jul-20 14:31N 60°03' E 024°53'7 1.8
2014-Jul-20 10:28N 60°10' E 024°58'4 0.9
2014-Jul-20 06:21N 60°06' E 024°58'0 0.0
2014-Jul-20 03:19N 60°06' E 024°58'4 0.5
2014-Jul-19 20:33N 60°07' E 025°06'4 0.6
2014-Jul-19 14:33N 60°06' E 024°59'1 0.7
2014-Jul-19 13:31N 60°06' E 024°58'6 6.1
2014-Jul-19 12:33N 60°05' E 025°10'5 2.7
2014-Jul-19 10:33N 60°07' E 024°60'1 0.5
2014-Jul-19 09:12N 60°06' E 024°58'0 0.0
2014-Jul-19 06:19N 60°06' E 024°58'0 0.0
2014-Jul-19 05:04N 60°06' E 024°58'1 0.1
2014-Jul-18 20:06N 60°07' E 024°59'3 4.7
2014-Jul-18 19:33N 60°07' E 025°04'4 3.7
2014-Jul-18 18:27N 60°10' E 024°58'5 5.3
2014-Jul-18 17:34N 60°07' E 025°05'3 2.7
2014-Jul-18 16:29N 60°06' E 024°59'6 6.0
2014-Jul-18 15:33N 60°05' E 025°10'6 4.2
2014-Jul-18 14:12N 60°06' E 024°59'5 1.3
2014-Jul-18 10:33N 60°11' E 025°01'4 1.4
2014-Jul-18 07:26N 60°06' E 024°59'0 0.1
2014-Jul-18 04:26N 60°07' E 024°59'1 1.1
2014-Jul-18 03:33N 60°07' E 024°59'7 6.8
2014-Jul-18 02:28N 60°00' E 024°57'6 4.6
2014-Jul-18 01:06N 60°06' E 024°58'0 0.0
2014-Jul-17 15:33N 60°06' E 024°58'3 3.4
2014-Jul-17 14:32N 60°10' E 024°59'7 6.7
2014-Jul-17 13:26N 60°03' E 024°56'4 3.1
2014-Jul-17 12:06N 60°06' E 024°59'1 2.5
2014-Jul-17 11:34N 60°08' E 024°59'1 1.2
2014-Jul-17 10:20N 60°06' E 024°58'3 3.6
2014-Jul-17 09:33N 60°07' E 025°04'3 0.6
2014-Jul-17 04:30N 60°06' E 024°58'1 1.0
2014-Jul-17 03:32N 60°05' E 024°59'1 0.1
2014-Jul-16 18:33N 60°07' E 024°60'5 4.4
2014-Jul-16 17:32N 60°06' E 025°09'5 4.2
2014-Jul-16 16:18N 60°06' E 024°58'0 0.2
2014-Jul-16 15:33N 60°06' E 024°59'1 1.4
2014-Jul-16 14:33N 60°06' E 024°56'7 0.7
2014-Jul-16 04:27N 60°02' E 025°06'6 6.4
2014-Jul-16 03:33N 60°06' E 024°59'0 0.2
2014-Jul-16 02:20N 60°06' E 024°58'0 0.0
2014-Jul-15 20:04N 60°06' E 024°58'4 8.0
2014-Jul-15 19:33N 60°06' E 025°07'1 0.2
2014-Jul-15 15:33N 60°07' E 025°05'  

Dump ship's entire track history